Flight Track Log - Related Links

Times and Time Zones

All times are in EDT time to prevent confusion due to time zone crossing. See the JBU185 flight status page for this flight to view local times or setup timezone preferences in your user account.

Time Position Orientation Groundspeed Altitude Reporting Facility
EDT Latitude Longitude Course Direction KTS MPH feet Rate Location/Type
Fri 05:47:55 PM 40.6500 -73.7167 323° Northwest 181 208 2,100  Level New York TRACON
Fri 05:48:55 PM 40.6667 -73.6333 75° East 274 315 3,100 1,900 Climbing New York TRACON
Fri 05:49:55 PM 40.7000 -73.5500 62° Northeast 287 330 5,900 2,700 Climbing New York TRACON
Fri 05:50:00 PM 41.0267 -74.0700 331° Northwest  Level FlightAware Approximate
Fri 05:50:55 PM 40.7667 -73.4833 37° Northeast 294 338 8,500  Level New York TRACON
Fri 05:51:00 PM 41.1307 -74.1481 331° Northwest  Level FlightAware Approximate
Fri 05:51:55 PM 40.8333 -73.4667 11° North 299 344 10,700  Level New York TRACON
Fri 05:52:00 PM 41.2339 -74.2253 339° North  Level FlightAware Approximate
Fri 05:52:55 PM 40.9000 -73.5333 323° Northwest 279 321 12,600  Level New York TRACON
Fri 05:53:00 PM 41.3371 -74.3037 323° Northwest  Level FlightAware Approximate
Fri 05:53:55 PM 40.9500 -73.6167 308° West 292 336 14,600  Level New York TRACON
Fri 05:54:55 PM 41.0000 -73.7000 309° West 325 374 15,400 750 Climbing New York TRACON
Fri 05:55:55 PM 41.0667 -73.8167 307° West 369 425 16,100 800 Climbing New York TRACON
Fri 05:56:55 PM 41.1333 -73.9167 312° West 385 443 17,000 723 Climbing New York TRACON
Fri 05:57:18 PM 41.1583 -73.9569 310° West 387 445 17,100 72 Climbing New York Center
Fri 05:58:18 PM 41.2239 -74.0647 309° West 387 445 17,100  Level New York Center
Fri 05:59:16 PM 41.2939 -74.1731 311° West 387 445 17,100 50 Level New York Center
Fri 06:00:17 PM 41.3614 -74.2844 309° West 387 445 17,200 885 Climbing New York Center
Fri 06:01:18 PM 41.4186 -74.3869 307° West 387 445 18,900 1,765 Climbing New York Center
Fri 06:02:16 PM 41.4731 -74.5089 301° West 387 445 20,700 1,641 Climbing New York Center
Fri 06:03:15 PM 41.5292 -74.6478 298° West 387 445 22,100 1,300 Climbing New York Center
Fri 06:04:16 PM 41.5872 -74.7758 301° West 394 453 23,300 1,091 Climbing New York Center
Fri 06:05:16 PM 41.6431 -74.9069 300° West 399 459 24,300 1,041 Climbing New York Center
Fri 06:06:17 PM 41.7008 -75.0383 301° West 404 465 25,400 1,636 Climbing New York Center
Fri 06:07:17 PM 41.7564 -75.1725 299° West 409 471 27,600 1,700 Climbing New York Center
Fri 06:08:17 PM 41.8081 -75.2928 300° West 404 465 28,800 864 Climbing New York Center
Fri 06:09:15 PM 41.8614 -75.4217 299° West 399 459 29,300 450 Climbing New York Center
Fri 06:10:17 PM 41.9183 -75.5594 299° West 409 471 29,700 443 Climbing New York Center
Fri 06:11:17 PM 41.9753 -75.6975 299° West 414 476 30,200 496 Climbing New York Center
Fri 06:12:18 PM 42.0319 -75.8331 299° West 419 482 30,700 458 Climbing New York Center
Fri 06:13:15 PM 42.0808 -75.9569 298° West 419 482 31,100 453 Climbing New York Center
Fri 06:14:57 PM 42.1719 -76.1867 298° West 439 505 31,900 333 Climbing Cleveland Center
Fri 06:15:57 PM 42.2192 -76.3322 294° West 426 490 32,000 50 Climbing Cleveland Center
Fri 06:16:57 PM 42.2683 -76.4833 294° West 415 478 32,000  Level Cleveland Center
Fri 06:17:57 PM 42.3108 -76.6211 293° West 404 465 32,000  Level Cleveland Center
Fri 06:19:57 PM 42.3972 -76.8969 293° West 404 465 32,000  Level Cleveland Center
Fri 06:20:57 PM 42.4408 -77.0322 294° West 410 472 32,000  Level Cleveland Center
Fri 06:21:57 PM 42.4847 -77.1706 293° West 410 472 32,000  Level Cleveland Center
Fri 06:22:57 PM 42.5264 -77.3092 292° West 410 472 32,000  Level Cleveland Center
Fri 06:23:57 PM 42.5697 -77.4481 293° West 410 472 32,000  Level Cleveland Center
Fri 06:24:57 PM 42.6086 -77.5758 293° West 410 472 32,000  Level Cleveland Center
Fri 06:25:57 PM 42.6519 -77.7178 293° West 410 472 32,000  Level Cleveland Center
Fri 06:26:57 PM 42.6928 -77.8544 292° West 410 472 32,000  Level Cleveland Center
Fri 06:27:57 PM 42.7356 -77.9939 293° West 410 472 32,000  Level Cleveland Center
Fri 06:28:57 PM 42.7783 -78.1364 292° West 410 472 32,000  Level Cleveland Center
Fri 06:29:57 PM 42.8186 -78.2736 292° West 410 472 32,000  Level Cleveland Center
Fri 06:30:57 PM 42.8631 -78.4192 293° West 410 472 32,000  Level Cleveland Center
Fri 06:31:57 PM 42.9097 -78.5764 292° West 415 478 32,000  Level Cleveland Center
Fri 06:32:57 PM 42.9492 -78.6997 294° West 415 478 32,000  Level Cleveland Center
Fri 06:33:57 PM 43.0036 -78.8400 298° West 410 472 32,000  Level Cleveland Center
Fri 06:34:36 PM 43.0333 -78.9333 294° West 420 483 32,000  Level Toronto Center
Fri 06:35:36 PM 43.0833 -79.0667 297° West 420 483 32,000 150 Level Toronto Center
Fri 06:36:36 PM 43.1333 -79.2000 297° West 420 483 32,300 500 Climbing Toronto Center
Fri 06:37:36 PM 43.2000 -79.3667 299° West 420 483 33,000 500 Climbing Toronto Center
Fri 06:38:36 PM 43.2500 -79.5000 297° West 410 472 33,300 400 Climbing Toronto Center
Fri 06:39:36 PM 43.3000 -79.6333 297° West 420 483 33,800 350 Climbing Toronto Center
Fri 06:40:36 PM 43.3500 -79.7667 297° West 420 483 34,000 100 Climbing Toronto Center
Fri 06:41:36 PM 43.4000 -79.9167 295° West 420 483 34,000  Level Toronto Center
Fri 06:42:36 PM 43.4667 -80.0667 302° West 430 495 34,000  Level Toronto Center
Fri 06:43:36 PM 43.5167 -80.2000 297° West 430 495 34,000  Level Toronto Center
Fri 06:44:36 PM 43.5667 -80.3500 295° West 430 495 34,000  Level Toronto Center
Fri 06:45:36 PM 43.6167 -80.5000 295° West 430 495 34,000  Level Toronto Center
Fri 06:46:36 PM 43.6833 -80.6500 302° West 430 495 34,000  Level Toronto Center
Fri 06:47:36 PM 43.7333 -80.8167 293° West 430 495 34,000  Level Toronto Center
Fri 06:48:36 PM 43.7667 -80.9500 289° West 430 495 34,000  Level Toronto Center
Fri 06:49:36 PM 43.8333 -81.1167 299° West 430 495 34,000  Level Toronto Center
Fri 06:50:36 PM 43.8833 -81.2500 298° West 440 506 34,000  Level Toronto Center
Fri 06:51:36 PM 43.9333 -81.4000 295° West 440 506 34,000  Level Toronto Center
Fri 06:52:36 PM 43.9833 -81.5500 295° West 440 506 34,000  Level Toronto Center
Fri 06:53:36 PM 44.0500 -81.7000 302° West 440 506 34,000  Level Toronto Center
Fri 06:54:36 PM 44.1000 -81.8667 293° West 440 506 34,000  Level Toronto Center
Fri 06:55:36 PM 44.1333 -82.0000 289° West 440 506 34,000  Level Toronto Center
Fri 06:56:36 PM 44.2000 -82.1667 299° West 430 495 34,000  Level Toronto Center
Fri 06:57:36 PM 44.2333 -82.3333 286° West 430 495 34,000  Level Toronto Center
Fri 06:58:30 PM 44.2644 -82.4650 288° West 433 498 34,000  Level Minneapolis Center
Fri 06:59:32 PM 44.2967 -82.6267 286° West 433 498 34,000  Level Minneapolis Center
Fri 07:00:34 PM 44.3358 -82.8203 286° West 433 498 34,000 -48 Level Minneapolis Center
Fri 07:01:36 PM 44.3678 -82.9831 285° West 434 499 33,900  Descending Minneapolis Center
Fri 07:02:38 PM 44.3989 -83.1458 285° West 434 499 34,000 48 Climbing Minneapolis Center
Fri 07:03:40 PM 44.4319 -83.3083 286° West 436 502 34,000 -48 Level Minneapolis Center
Fri 07:04:42 PM 44.4717 -83.4683 289° West 435 501 33,900 -48 Descending Minneapolis Center
Fri 07:05:44 PM 44.5308 -83.6197 299° West 441 507 33,900 48 Level Minneapolis Center
Fri 07:06:46 PM 44.5878 -83.7753 297° West 446 513 34,000  Climbing Minneapolis Center
Fri 07:07:48 PM 44.6556 -83.9619 297° West 448 516 33,900 -49 Descending Minneapolis Center
Fri 07:08:49 PM 44.7136 -84.1192 298° West 453 521 33,900 49 Level Minneapolis Center
Fri 07:09:51 PM 44.7700 -84.2797 296° West 458 527 34,000 48 Climbing Minneapolis Center
Fri 07:10:53 PM 44.8283 -84.4425 297° West 464 534 34,000  Level Minneapolis Center
Fri 07:11:55 PM 44.8861 -84.6031 297° West 463 533 34,000 -48 Level Minneapolis Center
Fri 07:12:57 PM 44.9528 -84.7967 296° West 461 531 33,900  Descending Minneapolis Center
Fri 07:13:59 PM 45.0100 -84.9583 297° West 462 532 34,000 48 Climbing Minneapolis Center
Fri 07:15:01 PM 45.0664 -85.1208 296° West 463 533 34,000 -48 Level Minneapolis Center
Fri 07:16:03 PM 45.1211 -85.2819 296° West 459 528 33,900 -48 Descending Minneapolis Center
Fri 07:17:05 PM 45.1761 -85.4414 296° West 455 524 33,900 48 Level Minneapolis Center
Fri 07:18:07 PM 45.2311 -85.6019 296° West 457 526 34,000 48 Climbing Minneapolis Center
Fri 07:19:09 PM 45.2961 -85.7928 296° West 452 520 34,000 -48 Level Minneapolis Center
Fri 07:20:11 PM 45.3486 -85.9503 295° West 446 513 33,900 -48 Descending Minneapolis Center
Fri 07:21:13 PM 45.4008 -86.1078 295° West 447 514 33,900  Level Minneapolis Center
Fri 07:22:15 PM 45.4533 -86.2661 295° West 445 512 33,900 48 Level Minneapolis Center
Fri 07:23:17 PM 45.5050 -86.4242 295° West 445 512 34,000 48 Climbing Minneapolis Center
Fri 07:24:19 PM 45.5692 -86.6161 296° West 449 517 34,000  Level Minneapolis Center
Fri 07:25:21 PM 45.6219 -86.7786 295° West 452 520 34,000  Level Minneapolis Center
Fri 07:26:23 PM 45.6742 -86.9408 295° West 452 520 34,000  Level Minneapolis Center
Fri 07:27:25 PM 45.7264 -87.1014 295° West 448 516 34,000 -48 Level Minneapolis Center
Fri 07:28:27 PM 45.7772 -87.2614 295° West 445 512 33,900 -48 Descending Minneapolis Center
Fri 07:29:29 PM 45.8289 -87.4217 295° West 445 512 33,900  Level Minneapolis Center
Fri 07:30:31 PM 45.8897 -87.6167 294° West 448 516 33,900 48 Level Minneapolis Center
Fri 07:31:33 PM 45.9403 -87.7811 294° West 452 520 34,000 48 Climbing Minneapolis Center
Fri 07:32:35 PM 45.9256 -87.9600 263° West 463 533 34,000  Level Minneapolis Center
Fri 07:33:37 PM 45.8864 -88.1264 251° West 446 513 34,000  Level Minneapolis Center
Fri 07:34:39 PM 45.8442 -88.3100 252° West 445 512 34,000  Level Minneapolis Center
Fri 07:35:41 PM 45.8050 -88.4767 251° West 441 507 34,000  Level Minneapolis Center
Fri 07:36:43 PM 45.7656 -88.6414 251° West 438 504 34,000  Level Minneapolis Center
Fri 07:37:45 PM 45.7256 -88.8064 251° West 436 502 34,000  Level Minneapolis Center
Fri 07:38:47 PM 45.6858 -88.9733 251° West 436 502 34,000 293 Level Minneapolis Center
Fri 07:39:48 PM 45.6394 -89.1636 251° West 437 503 34,600 634 Climbing Minneapolis Center
Fri 07:40:50 PM 45.5981 -89.3336 251° West 436 502 35,300 581 Climbing Minneapolis Center
Fri 07:41:52 PM 45.5578 -89.4964 251° West 433 498 35,800 339 Climbing Minneapolis Center
Fri 07:42:54 PM 45.5164 -89.6603 250° West 437 503 36,000 97 Climbing Minneapolis Center
Fri 07:43:56 PM 45.4775 -89.8167 251° West 423 487 36,000  Level Minneapolis Center
Fri 07:44:58 PM 45.4369 -89.9750 250° West 424 488 36,000  Level Minneapolis Center
Fri 07:46:00 PM 45.3969 -90.1342 250° West 426 490 36,000  Level Minneapolis Center
Fri 07:47:02 PM 45.3561 -90.2936 250° West 428 493 36,000  Level Minneapolis Center
Fri 07:48:04 PM 45.3072 -90.4831 250° West 426 490 36,000  Level Minneapolis Center
Fri 07:49:06 PM 45.2642 -90.6408 249° West 429 494 36,000  Level Minneapolis Center
Fri 07:50:07 PM 45.2244 -90.7983 250° West 426 490 36,000  Level Minneapolis Center
Fri 07:51:09 PM 45.1828 -90.9547 249° West 425 489 36,000  Level Minneapolis Center
Fri 07:52:11 PM 45.1417 -91.1081 249° West 420 483 36,000  Level Minneapolis Center
Fri 07:53:13 PM 45.0956 -91.2819 249° West 423 487 36,000 -48 Level Minneapolis Center
Fri 07:54:15 PM 45.0536 -91.4419 250° West 418 481 35,900  Descending Minneapolis Center
Fri 07:55:16 PM 45.0131 -91.5911 249° West 422 486 36,000 49 Climbing Minneapolis Center
Fri 07:56:18 PM 44.9656 -91.7633 249° West 429 494 36,000  Level Minneapolis Center
Fri 07:57:20 PM 44.9225 -91.9186 249° West 427 491 36,000  Level Minneapolis Center
Fri 07:58:22 PM 44.8800 -92.0753 249° West 430 495 36,000  Level Minneapolis Center
Fri 07:59:24 PM 44.8367 -92.2328 249° West 432 497 36,000  Level Minneapolis Center
Fri 08:01:27 PM 44.7481 -92.5492 249° West 436 502 36,000  Level Minneapolis Center
Fri 08:02:29 PM 44.7031 -92.7072 248° West 437 503 36,000  Level Minneapolis Center
Fri 08:03:31 PM 44.6500 -92.8969 249° West 435 501 36,000  Level Minneapolis Center
Fri 08:04:33 PM 44.6053 -93.0533 248° West 430 495 36,000  Level Minneapolis Center
Fri 08:05:35 PM 44.5594 -93.2092 248° West 426 490 36,000  Level Minneapolis Center
Fri 08:06:37 PM 44.5133 -93.3697 248° West 437 503 36,000  Level Minneapolis Center
Fri 08:07:38 PM 44.4694 -93.5244 248° West 430 495 36,000  Level Minneapolis Center
Fri 08:08:40 PM 44.4242 -93.6781 248° West 428 493 36,000  Level Minneapolis Center
Fri 08:09:42 PM 44.3783 -93.8322 247° West 429 494 36,000  Level Minneapolis Center
Fri 08:10:44 PM 44.3328 -93.9864 248° West 429 494 36,000  Level Minneapolis Center
Fri 08:11:46 PM 44.2772 -94.1689 247° West 428 493 36,000 49 Level Minneapolis Center
Fri 08:12:47 PM 44.2314 -94.3208 247° West 427 491 36,100 -293 Climbing Minneapolis Center
Fri 08:13:49 PM 44.1858 -94.4708 247° West 423 487 35,400 -1,355 Descending Minneapolis Center
Fri 08:14:51 PM 44.1400 -94.6214 247° West 425 489 33,300 -1,645 Descending Minneapolis Center
Fri 08:15:53 PM 44.0897 -94.7844 247° West 414 476 32,000 -634 Descending Minneapolis Center
Fri 08:16:54 PM 44.0425 -94.9367 247° West 425 489 32,000  Level Minneapolis Center
Fri 08:17:56 PM 43.9964 -95.0842 247° West 419 482 32,000  Level Minneapolis Center
Fri 08:18:58 PM 43.9503 -95.2311 246° West 416 479 32,000  Level Minneapolis Center
Fri 08:20:00 PM 43.9047 -95.3789 247° West 416 479 32,000  Level Minneapolis Center
Fri 08:21:01 PM 43.8553 -95.5267 245° Southwest 420 483 32,000  Level Minneapolis Center
Fri 08:22:03 PM 43.8089 -95.6758 247° West 420 483 32,000 48 Level Minneapolis Center
Fri 08:23:05 PM 43.7608 -95.8244 246° West 422 486 32,100  Climbing Minneapolis Center
Fri 08:24:07 PM 43.7028 -96.0031 246° West 422 486 32,000 -49 Descending Minneapolis Center
Fri 08:25:08 PM 43.6544 -96.1522 246° West 423 487 32,000  Level Minneapolis Center
Fri 08:26:10 PM 43.6056 -96.3003 246° West 423 487 32,000  Level Minneapolis Center
Fri 08:27:12 PM 43.5581 -96.4478 246° West 421 484 32,000  Level Minneapolis Center
Fri 08:28:14 PM 43.5083 -96.5939 245° Southwest 421 484 32,000  Level Minneapolis Center
Fri 08:29:15 PM 43.4611 -96.7394 246° West 417 480 32,000  Level Minneapolis Center
Fri 08:30:17 PM 43.4122 -96.8858 245° Southwest 419 482 32,000  Level Minneapolis Center
Fri 08:31:19 PM 43.3633 -97.0314 245° Southwest 418 481 32,000  Level Minneapolis Center
Fri 08:32:20 PM 43.3044 -97.2047 245° Southwest 417 480 32,000  Level Minneapolis Center
Fri 08:33:22 PM 43.2558 -97.3481 245° Southwest 415 478 32,000  Level Minneapolis Center
Fri 08:34:24 PM 43.2078 -97.4919 245° Southwest 416 479 32,000  Level Minneapolis Center
Fri 08:35:25 PM 43.1578 -97.6331 244° Southwest 412 474 32,000  Level Minneapolis Center
Fri 08:36:27 PM 43.1092 -97.7758 245° Southwest 413 475 32,000  Level Minneapolis Center
Fri 08:37:29 PM 43.0594 -97.9175 244° Southwest 413 475 32,000  Level Minneapolis Center
Fri 08:38:31 PM 43.0106 -98.0603 245° Southwest 415 478 32,000  Level Minneapolis Center
Fri 08:39:32 PM 42.9500 -98.2311 244° Southwest 416 479 32,000  Level Minneapolis Center
Fri 08:40:34 PM 42.8989 -98.3744 244° Southwest 419 482 32,000  Level Minneapolis Center
Fri 08:41:36 PM 42.8556 -98.5011 245° Southwest 423 487 32,000  Level Minneapolis Center
Fri 08:42:38 PM 42.7936 -98.6739 244° Southwest 424 488 32,000  Level Minneapolis Center
Fri 08:43:39 PM 42.7431 -98.8183 245° Southwest 424 488 32,000  Level Minneapolis Center
Fri 08:44:41 PM 42.6900 -98.9631 244° Southwest 428 493 32,000  Level Minneapolis Center
Fri 08:45:43 PM 42.6378 -99.1086 244° Southwest 429 494 32,000  Level Minneapolis Center
Fri 08:46:45 PM 42.5864 -99.2511 244° Southwest 424 488 32,000  Level Minneapolis Center
Fri 08:47:47 PM 42.5328 -99.3953 243° Southwest 427 491 32,000  Level Minneapolis Center
Fri 08:48:49 PM 42.4811 -99.5369 244° Southwest 423 487 32,000  Level Minneapolis Center
Fri 08:49:13 PM 42.4594 -99.5944 243° Southwest 423 487 32,000  Level Denver Center
Fri 08:50:15 PM 42.3997 -99.7556 243° Southwest 422 486 32,000  Level Denver Center
Fri 08:51:17 PM 42.3408 -99.9136 243° Southwest 422 486 32,000  Level Denver Center
Fri 08:52:18 PM 42.2994 -100.0250 243° Southwest 418 481 32,000  Level Denver Center
Fri 08:53:20 PM 42.2411 -100.1797 243° Southwest 416 479 32,000  Level Denver Center
Fri 08:54:22 PM 42.1825 -100.3333 243° Southwest 414 476 32,000  Level Denver Center
Fri 08:55:24 PM 42.1331 -100.4667 243° Southwest 416 479 32,000  Level Denver Center
Fri 08:56:25 PM 42.0742 -100.6178 242° Southwest 411 473 32,000  Level Denver Center
Fri 08:57:27 PM 42.0242 -100.7500 243° Southwest 413 475 32,000  Level Denver Center
Fri 08:58:29 PM 41.9656 -100.9031 243° Southwest 413 475 32,000  Level Denver Center
Fri 08:59:31 PM 41.9153 -101.0331 243° Southwest 411 473 32,000  Level Denver Center
Fri 09:00:32 PM 41.8567 -101.1844 243° Southwest 411 473 32,000  Level Denver Center
Fri 09:01:34 PM 41.8056 -101.3156 242° Southwest 413 475 32,000  Level Denver Center
Fri 09:02:36 PM 41.7550 -101.4447 242° Southwest 410 472 32,000  Level Denver Center
Fri 09:03:38 PM 41.6947 -101.5969 242° Southwest 414 476 32,000  Level Denver Center
Fri 09:04:39 PM 41.6425 -101.7286 242° Southwest 419 482 32,000  Level Denver Center
Fri 09:05:41 PM 41.5814 -101.8808 242° Southwest 418 481 32,000  Level Denver Center
Fri 09:06:43 PM 41.5311 -102.0108 243° Southwest 416 479 32,000 242 Level Denver Center
Fri 09:07:45 PM 41.4694 -102.1633 242° Southwest 418 481 32,500 629 Climbing Denver Center
Fri 09:08:47 PM 41.4133 -102.2975 241° Southwest 429 494 33,300 1,122 Climbing Denver Center
Fri 09:09:48 PM 41.3514 -102.4508 242° Southwest 422 486 34,800 1,317 Climbing Denver Center
Fri 09:10:50 PM 41.2992 -102.5778 241° Southwest 410 472 36,000 581 Climbing Denver Center
Fri 09:11:52 PM 41.2467 -102.7103 242° Southwest 399 459 36,000  Level Denver Center
Fri 09:12:54 PM 41.1886 -102.8481 241° Southwest 405 466 36,000  Level Denver Center
Fri 09:13:55 PM 41.1333 -102.9831 242° Southwest 407 468 36,000  Level Denver Center
Fri 09:14:57 PM 41.0817 -103.1086 241° Southwest 406 467 36,000  Level Denver Center
Fri 09:15:59 PM 41.0203 -103.2533 241° Southwest 404 465 36,000  Level Denver Center
Fri 09:17:01 PM 40.9661 -103.3831 241° Southwest 405 466 36,000  Level Denver Center
Fri 09:18:02 PM 40.9111 -103.5131 241° Southwest 405 466 36,000  Level Denver Center
Fri 09:19:04 PM 40.8561 -103.6464 241° Southwest 409 471 36,000  Level Denver Center
Fri 09:20:06 PM 40.7983 -103.7792 240° Southwest 414 476 36,000  Level Denver Center
Fri 09:21:08 PM 40.7308 -103.9372 241° Southwest 421 484 36,000 48 Level Denver Center
Fri 09:22:10 PM 40.6717 -104.0758 241° Southwest 432 497 36,100  Climbing Denver Center
Fri 09:23:11 PM 40.6142 -104.2150 241° Southwest 431 496 36,000 -49 Descending Denver Center
Fri 09:24:13 PM 40.5553 -104.3508 240° Southwest 425 489 36,000  Level Denver Center
Fri 09:25:15 PM 40.4958 -104.4847 240° Southwest 423 487 36,000  Level Denver Center
Fri 09:26:17 PM 40.4356 -104.6214 240° Southwest 428 493 36,000  Level Denver Center
Fri 09:27:19 PM 40.3758 -104.7569 240° Southwest 428 493 36,000  Level Denver Center
Fri 09:28:21 PM 40.3164 -104.8939 240° Southwest 430 495 36,000  Level Denver Center
Fri 09:29:23 PM 40.2453 -105.0514 239° Southwest 429 494 36,000 49 Level Denver Center
Fri 09:30:24 PM 40.1856 -105.1869 240° Southwest 427 491 36,100  Climbing Denver Center
Fri 09:31:26 PM 40.1239 -105.3239 240° Southwest 435 501 36,000 -48 Descending Denver Center
Fri 09:32:28 PM 40.0628 -105.4606 240° Southwest 434 499 36,000 48 Level Denver Center
Fri 09:33:30 PM 39.9997 -105.5978 239° Southwest 439 505 36,100  Climbing Denver Center
Fri 09:34:32 PM 39.9381 -105.7336 239° Southwest 438 504 36,000  Descending Denver Center
Fri 09:35:34 PM 39.8678 -105.8886 239° Southwest 425 489 36,100  Climbing Denver Center
Fri 09:36:36 PM 39.8067 -106.0228 239° Southwest 427 491 36,000 -48 Descending Denver Center
Fri 09:37:38 PM 39.7450 -106.1569 239° Southwest 429 494 36,000  Level Denver Center
Fri 09:38:40 PM 39.6853 -106.2858 239° Southwest 430 495 36,000  Level Denver Center
Fri 09:39:41 PM 39.6194 -106.4306 239° Southwest 427 491 36,000  Level Denver Center
Fri 09:40:43 PM 39.5586 -106.5625 239° Southwest 430 495 36,000  Level Denver Center
Fri 09:41:45 PM 39.4886 -106.7125 239° Southwest 433 498 36,000 48 Level Denver Center
Fri 09:42:47 PM 39.4275 -106.8417 239° Southwest 437 503 36,100  Climbing Denver Center
Fri 09:43:49 PM 39.3667 -106.9714 239° Southwest 441 507 36,000 -48 Descending Denver Center
Fri 09:44:51 PM 39.2953 -107.1225 239° Southwest 440 506 36,000  Level Denver Center
Fri 09:45:53 PM 39.2342 -107.2494 238° Southwest 437 503 36,000  Level Denver Center
Fri 09:46:55 PM 39.1622 -107.4003 238° Southwest 439 505 36,000  Level Denver Center
Fri 09:47:57 PM 39.0992 -107.5303 238° Southwest 443 510 36,000  Level Denver Center
Fri 09:48:59 PM 39.0267 -107.6808 238° Southwest 442 509 36,000  Level Denver Center
Fri 09:50:01 PM 38.9647 -107.8100 238° Southwest 443 510 36,000  Level Denver Center
Fri 09:51:03 PM 38.8922 -107.9617 238° Southwest 443 510 36,000  Level Denver Center
Fri 09:52:05 PM 38.8289 -108.0900 238° Southwest 443 510 36,000  Level Denver Center
Fri 09:53:07 PM 38.7667 -108.2181 238° Southwest 441 507 36,000  Level Denver Center
Fri 09:54:09 PM 38.6928 -108.3667 238° Southwest 443 510 36,000  Level Denver Center
Fri 09:55:11 PM 38.6300 -108.4944 238° Southwest 441 507 36,000  Level Denver Center
Fri 09:56:13 PM 38.5564 -108.6431 238° Southwest 442 509 36,000  Level Denver Center
Fri 09:57:15 PM 38.4931 -108.7703 238° Southwest 442 509 36,000  Level Denver Center
Fri 09:58:16 PM 38.4194 -108.9167 237° Southwest 440 506 36,000  Level Denver Center
Fri 09:59:18 PM 38.3553 -109.0436 237° Southwest 444 511 36,000  Level Denver Center
Fri 10:00:20 PM 38.2814 -109.1917 238° Southwest 441 507 36,000  Level Denver Center
Fri 10:01:22 PM 38.2172 -109.3167 237° Southwest 442 509 36,000  Level Denver Center
Fri 10:02:24 PM 38.1531 -109.4400 237° Southwest 437 503 36,000  Level Denver Center
Fri 10:03:26 PM 38.0789 -109.5881 238° Southwest 445 512 36,000  Level Denver Center
Fri 10:04:28 PM 38.0142 -109.7144 237° Southwest 441 507 36,000  Level Denver Center
Fri 10:05:29 PM 37.9594 -109.8181 236° Southwest 443 510 36,000  Level Denver Center
Fri 10:06:32 PM 37.8739 -109.9861 237° Southwest 444 511 36,000  Level Denver Center
Fri 10:07:34 PM 37.7967 -110.1339 237° Southwest 449 517 36,000  Level Denver Center
Fri 10:08:36 PM 37.7297 -110.2606 236° Southwest 451 519 36,000  Level Denver Center
Fri 10:09:38 PM 37.6533 -110.4067 237° Southwest 449 517 36,000  Level Denver Center
Fri 10:10:39 PM 37.5869 -110.5347 237° Southwest 446 513 36,000  Level Denver Center
Fri 10:11:41 PM 37.5156 -110.6669 236° Southwest 453 521 36,000  Level Denver Center
Fri 10:12:43 PM 37.4453 -110.7997 236° Southwest 456 525 36,000 48 Level Denver Center
Fri 10:13:45 PM 37.3742 -110.9344 236° Southwest 461 531 36,100  Climbing Denver Center
Fri 10:14:47 PM 37.3028 -111.0653 236° Southwest 456 525 36,000 -48 Descending Denver Center
Fri 10:15:49 PM 37.2192 -111.2236 236° Southwest 454 522 36,000  Level Denver Center
Fri 10:16:51 PM 37.1317 -111.3425 227° Southwest 462 532 36,000  Level Denver Center
Fri 10:17:53 PM 37.0467 -111.4639 229° Southwest 462 532 36,000  Level Denver Center
Fri 10:18:55 PM 36.9606 -111.5819 228° Southwest 460 529 36,000  Level Denver Center
Fri 10:19:57 PM 36.8747 -111.7006 228° Southwest 460 529 36,000  Level Denver Center
Fri 10:20:59 PM 36.7867 -111.8206 228° Southwest 464 534 36,000  Level Denver Center
Fri 10:22:01 PM 36.6975 -111.9425 228° Southwest 470 541 36,000  Level Denver Center
Fri 10:23:03 PM 36.5903 -112.0883 228° Southwest 475 547 36,000  Level Denver Center
Fri 10:23:30 PM 36.5522 -112.1375 226° Southwest 473 544 36,000  Level Los Angeles Center
Fri 10:24:32 PM 36.4617 -112.2606 228° Southwest 479 551 36,000  Level Los Angeles Center
Fri 10:25:33 PM 36.3722 -112.3819 228° Southwest 476 548 36,000  Level Los Angeles Center
Fri 10:26:35 PM 36.2806 -112.5050 227° Southwest 482 555 36,000 -97 Level Los Angeles Center
Fri 10:27:37 PM 36.1889 -112.6269 227° Southwest 483 556 35,800 -968 Descending Los Angeles Center
Fri 10:28:39 PM 36.0811 -112.7711 227° Southwest 476 548 34,000 -871 Descending Los Angeles Center
Fri 10:29:41 PM 35.9892 -112.8928 227° Southwest 481 554 34,000  Level Los Angeles Center
Fri 10:30:43 PM 35.8972 -113.0133 227° Southwest 488 562 34,000  Level Los Angeles Center
Fri 10:31:45 PM 35.8061 -113.1347 227° Southwest 488 562 34,000  Level Los Angeles Center
Fri 10:32:47 PM 35.7147 -113.2547 227° Southwest 487 560 34,000  Level Los Angeles Center
Fri 10:33:48 PM 35.6222 -113.3753 227° Southwest 491 565 34,000  Level Los Angeles Center
Fri 10:34:50 PM 35.5108 -113.5203 227° Southwest 492 566 34,000  Level Los Angeles Center
Fri 10:35:52 PM 35.4169 -113.6417 227° Southwest 495 570 34,000  Level Los Angeles Center
Fri 10:36:54 PM 35.3233 -113.7647 227° Southwest 497 572 34,000  Level Los Angeles Center
Fri 10:37:56 PM 35.2275 -113.8861 226° Southwest 499 574 34,000  Level Los Angeles Center
Fri 10:38:58 PM 35.1261 -114.0169 227° Southwest 499 574 34,000 -146 Level Los Angeles Center
Fri 10:39:59 PM 35.0289 -114.1403 226° Southwest 502 578 33,700 -634 Descending Los Angeles Center
Fri 10:41:01 PM 34.9319 -114.2644 226° Southwest 503 579 32,700 -1,306 Descending Los Angeles Center
Fri 10:42:03 PM 34.8136 -114.4144 226° Southwest 509 586 31,000 -1,306 Descending Los Angeles Center
Fri 10:43:05 PM 34.7161 -114.5342 225° Southwest 502 578 30,000 -488 Descending Los Angeles Center
Fri 10:44:06 PM 34.6267 -114.6344 223° Southwest 495 570 30,000  Level Los Angeles Center
Fri 10:45:08 PM 34.5053 -114.7700 223° Southwest 495 570 30,000  Level Los Angeles Center
Fri 10:46:10 PM 34.4044 -114.8847 223° Southwest 496 571 30,000  Level Los Angeles Center
Fri 10:47:12 PM 34.3031 -114.9989 223° Southwest 498 573 30,000  Level Los Angeles Center
Fri 10:48:13 PM 34.2019 -115.1125 223° Southwest 498 573 30,000  Level Los Angeles Center
Fri 10:49:15 PM 34.1003 -115.2269 223° Southwest 499 574 30,000  Level Los Angeles Center
Fri 10:50:17 PM 33.9981 -115.3403 223° Southwest 501 577 30,000  Level Los Angeles Center
Fri 10:51:19 PM 33.8969 -115.4533 223° Southwest 498 573 30,000 -146 Level Los Angeles Center
Fri 10:52:20 PM 33.7764 -115.5892 223° Southwest 495 570 29,700 -889 Descending Los Angeles Center
Fri 10:53:34 PM 33.6767 -115.6989 222° Southwest 488 562 28,000 -1,809 Descending Los Angeles Center
Fri 10:54:36 PM 33.5725 -115.8406 229° Southwest 469 540 25,600 -2,129 Descending Los Angeles Center
Fri 10:55:38 PM 33.4961 -115.9594 232° Southwest 453 521 23,600 -2,081 Descending Los Angeles Center
Fri 10:56:40 PM 33.4003 -116.0536 219° Southwest 445 512 21,300 -2,195 Descending Los Angeles Center
Fri 10:57:41 PM 33.3081 -116.1475 220° Southwest 437 503 19,100 -2,098 Descending Los Angeles Center
Fri 10:58:43 PM 33.2183 -116.2350 219° Southwest 421 484 17,000 -2,177 Descending Los Angeles Center
Fri 10:59:45 PM 33.1172 -116.3344 219° Southwest 399 459 14,600 -2,049 Descending Los Angeles Center
Fri 11:00:46 PM 33.0397 -116.4094 219° Southwest 382 440 12,800 -1,561 Descending Los Angeles Center
Fri 11:01:48 PM 32.9553 -116.4719 212° Southwest 363 418 11,400 -1,210 Descending Los Angeles Center
Fri 11:02:50 PM 32.8725 -116.5206 206° Southwest 342 394 10,300 -1,024 Descending Los Angeles Center
Fri 11:03:51 PM 32.8164 -116.5864 225° Southwest 316 364 9,300 -1,073 Descending Los Angeles Center
Fri 11:04:53 PM 32.7761 -116.6731 241° Southwest 301 346 8,100 -1,403 Descending Los Angeles Center
Fri 11:05:55 PM 32.7283 -116.7728 240° Southwest 293 337 6,400 -1,306 Descending Los Angeles Center
Fri 11:06:57 PM 32.6950 -116.8547 244° Southwest 284 327 5,400 -1,171 Descending Los Angeles Center
Fri 11:07:58 PM 32.6717 -116.9356 251° West 266 306 4,000 -1,073 Descending Los Angeles Center
Fri 11:09:00 PM 32.6872 -116.9992 286° West 212 244 3,200 -774 Descending Los Angeles Center
Fri 11:10:02 PM 32.6992 -117.0486 286° West 169 194 2,400 -823 Descending Los Angeles Center
Fri 11:11:04 PM 32.7128 -117.1000 287° West 143 165 1,500 -780 Descending Los Angeles Center
Fri 11:12:05 PM 32.7208 -117.1433 282° West 137 158 800 -585 Descending Los Angeles Center
Fri 11:13:07 PM 32.7311 -117.1800 288° West 136 157 300 -484 Descending Los Angeles Center

Login

Don't have an account? Register now (free) for customized features, flight alerts, and more!